Flight Track Log - Related Links

Times and Time Zones

All times are in EDT time to prevent confusion due to time zone crossing. See the N3560F flight status page for this flight to view local times or setup timezone preferences in your user account.

Time Position Orientation Groundspeed Altitude Reporting Facility
EDT Latitude Longitude Course Direction KTS MPH feet Rate Location/Type
Fri 10:05:55 AM 40.9389 -81.5369 229° Southwest 108 124 3,700  Level Indianapolis Center
Fri 10:06:57 AM 40.9092 -81.5464 194° South 109 125 4,000 97 Climbing Indianapolis Center
Fri 10:07:59 AM 40.8844 -81.5733 219° Southwest 122 140 3,900 -48 Descending Indianapolis Center
Fri 10:08:00 AM 40.7733 -81.6258 229° Southwest  Level FlightAware Approximate
Fri 10:09:00 AM 40.7524 -81.6580 229° Southwest  Level FlightAware Approximate
Fri 10:09:01 AM 40.9067 -81.5964 322° Northwest 119 137 3,900  Level Indianapolis Center
Fri 10:10:00 AM 40.7314 -81.6902 229° Southwest  Level FlightAware Approximate
Fri 10:10:03 AM 40.9169 -81.5572 71° East 130 150 3,900  Level Indianapolis Center
Fri 10:11:00 AM 40.7104 -81.7224 229° Southwest  Level FlightAware Approximate
Fri 10:11:05 AM 40.8925 -81.5633 191° South 137 158 3,700  Level Indianapolis Center
Fri 10:12:07 AM 40.8653 -81.5747 198° South 139 160 3,700 -195 Level Indianapolis Center
Fri 10:13:08 AM 40.8344 -81.5953 207° Southwest 130 150 3,300 -341 Descending Indianapolis Center
Fri 10:14:10 AM 40.8381 -81.6375 276° West 120 138 3,000 -145 Descending Indianapolis Center
Fri 10:15:12 AM 40.8389 -81.6794 272° West 121 139 3,000 -48 Level Indianapolis Center
Fri 10:16:14 AM 40.8328 -81.7183 258° West 113 130 2,900 -48 Descending Indianapolis Center
Fri 10:17:16 AM 40.8122 -81.7461 226° Southwest 124 143 2,900 48 Level Indianapolis Center
Fri 10:18:18 AM 40.7911 -81.7114 129° Southeast 122 140 3,000  Climbing Indianapolis Center
Fri 10:19:21 AM 40.7850 -81.6731 102° East 127 146 2,900  Descending Indianapolis Center
Fri 10:20:22 AM 40.7944 -81.6239 76° East 121 139 3,000 -49 Climbing Indianapolis Center
Fri 10:21:24 AM 40.8106 -81.5922 56° Northeast 111 128 2,800  Descending Indianapolis Center
Fri 10:22:27 AM 40.8308 -81.5644 46° Northeast 104 120 3,000 -145 Climbing Indianapolis Center
Fri 10:23:28 AM 40.8511 -81.5328 50° Northeast 108 124 2,500 -634 Descending Indianapolis Center
Fri 10:24:30 AM 40.8700 -81.5089 44° Northeast 102 117 1,700 -387 Descending Indianapolis Center
Fri 10:25:32 AM 40.8856 -81.4867 47° Northeast 90 104 1,700 -145 Level Indianapolis Center
Fri 10:26:34 AM 40.9047 -81.4519 54° Northeast 93 107 1,400 -290 Descending Indianapolis Center
Fri 10:28:00 AM 40.8698 -81.4918 221° Southwest  Level FlightAware Approximate
Fri 10:35:00 AM 40.7175 -81.7116 229° Southwest  Level FlightAware Approximate
Fri 10:36:00 AM 40.6965 -81.7438 229° Southwest  Level FlightAware Approximate
Fri 10:37:00 AM 40.6755 -81.7759 229° Southwest  Level FlightAware Approximate
Fri 10:38:00 AM 40.6545 -81.8080 229° Southwest  Level FlightAware Approximate
Fri 10:39:00 AM 40.6335 -81.8401 229° Southwest  Level FlightAware Approximate
Fri 10:40:00 AM 40.6125 -81.8722 229° Southwest  Level FlightAware Approximate
Fri 10:41:00 AM 40.5914 -81.9043 229° Southwest  Level FlightAware Approximate
Fri 10:42:00 AM 40.5703 -81.9362 229° Southwest  Level FlightAware Approximate
Fri 10:43:00 AM 40.5491 -81.9681 229° Southwest  Level FlightAware Approximate
Fri 10:44:00 AM 40.5279 -81.9999 229° Southwest  Level FlightAware Approximate
Fri 10:45:00 AM 40.5067 -82.0317 229° Southwest  Level FlightAware Approximate
Fri 10:46:00 AM 40.4855 -82.0635 229° Southwest  Level FlightAware Approximate
Fri 10:47:00 AM 40.4643 -82.0953 229° Southwest  Level FlightAware Approximate
Fri 10:48:00 AM 40.4428 -82.1268 227° Southwest  Level FlightAware Approximate
Fri 10:49:00 AM 40.4208 -82.1576 227° Southwest  Level FlightAware Approximate
Fri 10:50:00 AM 40.3988 -82.1884 227° Southwest  Level FlightAware Approximate
Fri 10:51:00 AM 40.3768 -82.2192 227° Southwest  Level FlightAware Approximate
Fri 10:52:00 AM 40.3557 -82.2511 231° Southwest  Level FlightAware Approximate
Fri 10:53:00 AM 40.3355 -82.2839 231° Southwest  Level FlightAware Approximate
Fri 10:54:00 AM 40.3153 -82.3167 231° Southwest  Level FlightAware Approximate
Fri 10:55:00 AM 40.2950 -82.3495 231° Southwest  Level FlightAware Approximate
Fri 10:56:00 AM 40.2748 -82.3822 231° Southwest  Level FlightAware Approximate
Fri 10:57:00 AM 40.2545 -82.4150 231° Southwest  Level FlightAware Approximate
Fri 10:58:00 AM 40.2342 -82.4477 231° Southwest  Level FlightAware Approximate
Fri 10:59:00 AM 40.2140 -82.4804 231° Southwest  Level FlightAware Approximate
Fri 11:00:00 AM 40.1937 -82.5131 231° Southwest  Level FlightAware Approximate
Fri 11:01:00 AM 40.1734 -82.5458 231° Southwest  Level FlightAware Approximate
Fri 11:02:00 AM 40.1531 -82.5784 231° Southwest  Level FlightAware Approximate
Fri 11:03:00 AM 40.1344 -82.6127 235° Southwest  Level FlightAware Approximate
Fri 11:04:00 AM 40.1160 -82.6472 235° Southwest  Level FlightAware Approximate
Fri 11:05:00 AM 40.0977 -82.6817 235° Southwest  Level FlightAware Approximate
Fri 11:06:00 AM 40.0793 -82.7162 235° Southwest  Level FlightAware Approximate
Fri 11:07:00 AM 40.0609 -82.7507 235° Southwest  Level FlightAware Approximate
Fri 11:08:00 AM 40.0425 -82.7852 235° Southwest  Level FlightAware Approximate
Fri 11:09:00 AM 40.0240 -82.8196 235° Southwest  Level FlightAware Approximate
Fri 11:10:00 AM 40.0056 -82.8540 235° Southwest  Level FlightAware Approximate
Fri 11:11:00 AM 39.9872 -82.8885 235° Southwest  Level FlightAware Approximate
Fri 11:12:00 AM 39.9687 -82.9228 235° Southwest  Level FlightAware Approximate
Fri 11:13:00 AM 39.9503 -82.9572 235° Southwest  Level FlightAware Approximate
Fri 11:14:00 AM 39.9318 -82.9916 235° Southwest  Level FlightAware Approximate
Fri 11:15:00 AM 39.9133 -83.0259 235° Southwest  Level FlightAware Approximate
Fri 11:16:00 AM 39.8948 -83.0602 235° Southwest  Level FlightAware Approximate
Fri 11:17:00 AM 39.8763 -83.0945 235° Southwest  Level FlightAware Approximate
Fri 11:18:00 AM 39.8578 -83.1288 235° Southwest  Level FlightAware Approximate
Fri 11:19:00 AM 39.8393 -83.1630 235° Southwest  Level FlightAware Approximate
Fri 11:20:00 AM 39.8208 -83.1973 235° Southwest  Level FlightAware Approximate
Fri 11:21:00 AM 39.8022 -83.2315 235° Southwest  Level FlightAware Approximate
Fri 11:22:00 AM 39.7837 -83.2657 235° Southwest  Level FlightAware Approximate
Fri 11:23:00 AM 39.7651 -83.2999 235° Southwest  Level FlightAware Approximate
Fri 11:24:00 AM 39.7465 -83.3340 235° Southwest  Level FlightAware Approximate
Fri 11:25:00 AM 39.7280 -83.3682 235° Southwest  Level FlightAware Approximate
Fri 11:26:00 AM 39.7094 -83.4023 235° Southwest  Level FlightAware Approximate
Fri 11:27:00 AM 39.6908 -83.4364 235° Southwest  Level FlightAware Approximate
Fri 11:28:00 AM 39.6721 -83.4705 235° Southwest  Level FlightAware Approximate
Fri 11:29:00 AM 39.6535 -83.5045 235° Southwest  Level FlightAware Approximate
Fri 11:30:00 AM 39.6348 -83.5386 235° Southwest  Level FlightAware Approximate
Fri 11:31:00 AM 39.6161 -83.5726 235° Southwest  Level FlightAware Approximate
Fri 11:32:00 AM 39.5975 -83.6066 235° Southwest  Level FlightAware Approximate
Fri 11:33:00 AM 39.5788 -83.6405 234° Southwest  Level FlightAware Approximate
Fri 11:34:00 AM 39.5601 -83.6745 234° Southwest  Level FlightAware Approximate
Fri 11:35:00 AM 39.5414 -83.7085 234° Southwest  Level FlightAware Approximate
Fri 11:36:00 AM 39.5226 -83.7424 234° Southwest  Level FlightAware Approximate
Fri 11:37:00 AM 39.5039 -83.7763 234° Southwest  Level FlightAware Approximate
Fri 11:38:00 AM 39.4857 -83.8107 236° Southwest  Level FlightAware Approximate
Fri 11:39:00 AM 39.4677 -83.8452 236° Southwest  Level FlightAware Approximate
Fri 11:40:00 AM 39.4497 -83.8797 236° Southwest  Level FlightAware Approximate
Fri 11:41:00 AM 39.4317 -83.9142 236° Southwest  Level FlightAware Approximate
Fri 11:42:00 AM 39.4137 -83.9487 236° Southwest  Level FlightAware Approximate
Fri 11:43:00 AM 39.3956 -83.9831 236° Southwest  Level FlightAware Approximate
Fri 11:44:00 AM 39.3775 -84.0176 236° Southwest  Level FlightAware Approximate
Fri 11:45:00 AM 39.3595 -84.0520 236° Southwest  Level FlightAware Approximate
Fri 11:46:00 AM 39.3414 -84.0864 236° Southwest  Level FlightAware Approximate
Fri 11:47:00 AM 39.3233 -84.1208 236° Southwest  Level FlightAware Approximate
Fri 11:48:00 AM 39.3052 -84.1552 236° Southwest  Level FlightAware Approximate
Fri 11:49:00 AM 39.2870 -84.1895 236° Southwest  Level FlightAware Approximate
Fri 11:50:00 AM 39.2689 -84.2238 236° Southwest  Level FlightAware Approximate
Fri 11:51:00 AM 39.2508 -84.2581 236° Southwest  Level FlightAware Approximate
Fri 11:52:00 AM 39.2326 -84.2924 236° Southwest  Level FlightAware Approximate
Fri 11:53:00 AM 39.2145 -84.3267 236° Southwest  Level FlightAware Approximate
Fri 11:54:00 AM 39.1963 -84.3609 236° Southwest  Level FlightAware Approximate
Fri 11:55:00 AM 39.1781 -84.3952 236° Southwest  Level FlightAware Approximate
Fri 11:56:00 AM 39.1595 -84.4290 233° Southwest  Level FlightAware Approximate
Fri 11:57:00 AM 39.1400 -84.4621 233° Southwest  Level FlightAware Approximate
Fri 11:58:00 AM 39.1206 -84.4951 233° Southwest  Level FlightAware Approximate
Fri 11:59:00 AM 39.1012 -84.5282 233° Southwest  Level FlightAware Approximate
Fri 12:00:00 PM 39.0818 -84.5612 233° Southwest  Level FlightAware Approximate
Fri 12:01:00 PM 39.0624 -84.5943 233° Southwest  Level FlightAware Approximate
Fri 12:02:00 PM 39.0429 -84.6273 233° Southwest  Level FlightAware Approximate
Fri 12:03:00 PM 39.0235 -84.6602 233° Southwest  Level FlightAware Approximate
Fri 12:04:00 PM 39.0040 -84.6932 233° Southwest  Level FlightAware Approximate
Fri 12:05:00 PM 38.9794 -84.7193 216° Southwest  Level FlightAware Approximate
Fri 12:06:00 PM 38.9534 -84.7437 216° Southwest  Level FlightAware Approximate
Fri 12:07:00 PM 38.9273 -84.7680 216° Southwest  Level FlightAware Approximate
Fri 12:08:00 PM 38.9013 -84.7923 216° Southwest  Level FlightAware Approximate
Fri 12:09:00 PM 38.8753 -84.8166 216° Southwest  Level FlightAware Approximate
Fri 12:10:00 PM 38.8493 -84.8409 216° Southwest  Level FlightAware Approximate
Fri 12:11:00 PM 38.8232 -84.8652 216° Southwest  Level FlightAware Approximate
Fri 12:12:00 PM 38.7972 -84.8894 216° Southwest  Level FlightAware Approximate
Fri 12:13:00 PM 38.7712 -84.9137 216° Southwest  Level FlightAware Approximate
Fri 12:14:00 PM 38.7453 -84.9381 218° Southwest  Level FlightAware Approximate
Fri 12:15:00 PM 38.7199 -84.9635 218° Southwest  Level FlightAware Approximate
Fri 12:16:00 PM 38.6946 -84.9889 218° Southwest  Level FlightAware Approximate
Fri 12:17:00 PM 38.6692 -85.0142 218° Southwest  Level FlightAware Approximate
Fri 12:18:00 PM 38.6438 -85.0396 218° Southwest  Level FlightAware Approximate
Fri 12:19:00 PM 38.6185 -85.0649 218° Southwest  Level FlightAware Approximate
Fri 12:20:00 PM 38.5931 -85.0902 218° Southwest  Level FlightAware Approximate
Fri 12:21:00 PM 38.5678 -85.1156 218° Southwest  Level FlightAware Approximate
Fri 12:22:00 PM 38.5424 -85.1409 218° Southwest  Level FlightAware Approximate
Fri 12:23:00 PM 38.5172 -85.1663 218° Southwest  Level FlightAware Approximate
Fri 12:24:00 PM 38.4919 -85.1917 218° Southwest  Level FlightAware Approximate
Fri 12:25:00 PM 38.4666 -85.2171 218° Southwest  Level FlightAware Approximate
Fri 12:26:00 PM 38.4413 -85.2425 218° Southwest  Level FlightAware Approximate
Fri 12:27:00 PM 38.4160 -85.2678 218° Southwest  Level FlightAware Approximate
Fri 12:28:00 PM 38.3906 -85.2932 218° Southwest  Level FlightAware Approximate
Fri 12:29:00 PM 38.3653 -85.3185 218° Southwest  Level FlightAware Approximate
Fri 12:30:00 PM 38.3400 -85.3438 218° Southwest  Level FlightAware Approximate
Fri 12:31:00 PM 38.3147 -85.3690 218° Southwest  Level FlightAware Approximate
Fri 12:32:00 PM 38.2893 -85.3943 218° Southwest  Level FlightAware Approximate
Fri 12:33:00 PM 38.2640 -85.4195 218° Southwest  Level FlightAware Approximate
Fri 12:34:00 PM 38.2386 -85.4447 218° Southwest  Level FlightAware Approximate
Fri 12:35:00 PM 38.2124 -85.4684 215° Southwest  Level FlightAware Approximate
Fri 12:36:00 PM 38.1859 -85.4916 215° Southwest  Level FlightAware Approximate
Fri 12:37:00 PM 38.1594 -85.5148 215° Southwest  Level FlightAware Approximate
Fri 12:38:00 PM 38.1329 -85.5379 215° Southwest  Level FlightAware Approximate
Fri 12:39:00 PM 38.1064 -85.5611 215° Southwest  Level FlightAware Approximate
Fri 12:40:00 PM 38.0933 -85.5965 254° West  Level FlightAware Approximate
Fri 12:41:00 PM 38.0844 -85.6358 254° West  Level FlightAware Approximate
Fri 12:42:00 PM 38.0756 -85.6751 254° West  Level FlightAware Approximate
Fri 12:43:00 PM 38.0667 -85.7144 254° West  Level FlightAware Approximate
Fri 12:44:00 PM 38.0578 -85.7537 254° West  Level FlightAware Approximate
Fri 12:45:00 PM 38.0490 -85.7929 254° West  Level FlightAware Approximate
Fri 12:46:00 PM 38.0401 -85.8322 254° West  Level FlightAware Approximate
Fri 12:47:00 PM 38.0311 -85.8714 254° West  Level FlightAware Approximate
Fri 12:48:00 PM 38.0222 -85.9107 254° West  Level FlightAware Approximate
Fri 12:49:00 PM 38.0132 -85.9499 254° West  Level FlightAware Approximate
Fri 12:50:00 PM 38.0043 -85.9891 254° West  Level FlightAware Approximate
Fri 12:51:00 PM 37.9953 -86.0283 254° West  Level FlightAware Approximate
Fri 12:52:00 PM 37.9863 -86.0675 254° West  Level FlightAware Approximate
Fri 12:53:00 PM 37.9773 -86.1067 254° West  Level FlightAware Approximate
Fri 12:54:00 PM 37.9683 -86.1458 254° West  Level FlightAware Approximate
Fri 12:55:00 PM 37.9593 -86.1850 254° West  Level FlightAware Approximate
Fri 12:56:00 PM 37.9503 -86.2241 254° West  Level FlightAware Approximate
Fri 12:57:00 PM 37.9412 -86.2633 254° West  Level FlightAware Approximate
Fri 12:58:00 PM 37.9322 -86.3024 254° West  Level FlightAware Approximate
Fri 12:59:00 PM 37.9231 -86.3416 254° West  Level FlightAware Approximate
Fri 01:00:00 PM 37.9140 -86.3807 254° West  Level FlightAware Approximate
Fri 01:01:00 PM 37.9049 -86.4198 254° West  Level FlightAware Approximate
Fri 01:02:00 PM 37.8958 -86.4589 254° West  Level FlightAware Approximate
Fri 01:03:00 PM 37.8867 -86.4980 254° West  Level FlightAware Approximate
Fri 01:04:00 PM 37.8775 -86.5370 254° West  Level FlightAware Approximate
Fri 01:05:00 PM 37.8684 -86.5761 253° West  Level FlightAware Approximate
Fri 01:06:00 PM 37.8588 -86.6150 253° West  Level FlightAware Approximate
Fri 01:07:00 PM 37.8491 -86.6539 253° West  Level FlightAware Approximate
Fri 01:08:00 PM 37.8394 -86.6927 252° West  Level FlightAware Approximate
Fri 01:09:00 PM 37.8298 -86.7316 252° West  Level FlightAware Approximate
Fri 01:10:00 PM 37.8200 -86.7704 252° West  Level FlightAware Approximate
Fri 01:11:00 PM 37.8103 -86.8092 252° West  Level FlightAware Approximate
Fri 01:12:00 PM 37.8006 -86.8480 252° West  Level FlightAware Approximate

Login

Don't have an account? Register now (free) for customized features, flight alerts, and more!